Time;durP1;ratioP1;P1;durP2;ratioP2;P2;SDS_P1;SDS_P2;PMS_P1;PMS_P2;Temp;Humidity;BMP_temperature;BMP_pressure;BME280_temperature;BME280_humidity;BME280_pressure;Samples;Min_cycle;Max_cycle;Signal;HPM_P1;HPM_P2
2022/09/08 00:00:31;;;;;;;5.50;1.90;;;;;;;-140.72;100.00;52451.72;5107448;27;20062;-68
2022/09/08 00:03:00;;;;;;;3.22;1.42;;;;;;;-140.72;100.00;52437.53;5117873;27;20507;-68
2022/09/08 00:05:27;;;;;;;2.33;0.90;;;;;;;-140.72;100.00;52453.75;5100030;27;20048;-68
2022/09/08 00:07:55;;;;;;;3.50;1.30;;;;;;;-140.72;100.00;52459.84;5102314;28;20484;-67
2022/09/08 00:10:21;;;;;;;3.17;1.60;;;;;;;-140.72;100.00;52449.72;5106447;27;20011;-69
2022/09/08 00:12:47;;;;;;;1.98;1.20;;;;;;;-140.72;100.00;52463.91;5115569;27;20026;-68
2022/09/08 00:15:13;;;;;;;5.30;1.42;;;;;;;-140.72;100.00;52453.75;5115016;27;20058;-68
2022/09/08 00:17:38;;;;;;;3.72;1.60;;;;;;;-140.72;100.00;52463.91;5114474;27;20410;-68
2022/09/08 00:20:06;;;;;;;3.22;1.20;;;;;;;-140.72;100.00;52484.19;5105925;28;20020;-68
2022/09/08 00:22:32;;;;;;;5.15;1.45;;;;;;;-140.72;100.00;52480.16;5108996;27;20128;-68
2022/09/08 00:24:57;;;;;;;2.30;1.27;;;;;;;-140.72;100.00;52435.50;5132841;27;20155;-67
2022/09/08 00:27:22;;;;;;;2.22;1.15;;;;;;;-140.72;100.00;52465.94;5117200;27;20015;-69
2022/09/08 00:29:48;;;;;;;5.05;1.40;;;;;;;-140.72;100.00;52435.50;5120231;27;20461;-67
2022/09/08 00:32:13;;;;;;;7.65;2.08;;;;;;;-140.72;100.00;52476.09;5111042;28;20030;-68
2022/09/08 00:34:39;;;;;;;2.13;1.08;;;;;;;-140.72;100.00;52480.16;5092162;28;20168;-67
2022/09/08 00:37:04;;;;;;;7.15;1.75;;;;;;;-140.72;100.00;52443.63;5105456;28;20652;-68
2022/09/08 00:39:30;;;;;;;2.13;1.23;;;;;;;-140.72;100.00;52472.03;5104202;28;20373;-68
2022/09/08 00:41:56;;;;;;;5.20;1.45;;;;;;;-140.72;100.00;52431.44;5091959;28;20027;-68
2022/09/08 00:44:49;;;;;;;4.53;1.38;;;;;;;-140.72;100.00;52461.88;5111017;28;20411;-67
2022/09/08 00:47:29;;;;;;;2.40;1.63;;;;;;;-140.72;100.00;52463.91;5097934;28;20123;-67
2022/09/08 00:50:07;;;;;;;5.97;2.35;;;;;;;-140.72;100.00;52496.38;5117121;27;20024;-67
2022/09/08 00:52:47;;;;;;;3.25;1.60;;;;;;;-140.72;100.00;52484.19;5091495;28;20453;-67
2022/09/08 00:55:14;;;;;;;4.00;1.70;;;;;;;-140.72;100.00;52463.91;5095753;28;20019;-68
2022/09/08 00:57:39;;;;;;;4.20;2.20;;;;;;;-140.72;100.00;52500.44;5111542;28;20070;-67
2022/09/08 01:00:07;;;;;;;6.10;2.33;;;;;;;-140.72;100.00;52480.16;5106189;28;20051;-67
2022/09/08 01:02:32;;;;;;;3.63;2.00;;;;;;;-140.72;100.00;52463.91;5102845;28;20030;-68
2022/09/08 01:05:03;;;;;;;7.32;3.53;;;;;;;-140.72;100.00;52476.09;5111093;28;20020;-68
2022/09/08 01:13:45;;;;;;;6.05;3.25;;;;;;;-140.72;100.00;52484.19;5092033;28;20039;-68
2022/09/08 01:16:11;;;;;;;4.95;2.67;;;;;;;-140.72;100.00;52480.16;5111585;27;20705;-67
2022/09/08 01:18:38;;;;;;;4.90;3.08;;;;;;;-140.72;100.00;52455.78;5131589;27;20019;-68
2022/09/08 01:21:09;;;;;;;7.78;3.42;;;;;;;-140.72;100.00;52498.41;5113013;27;20107;-68
2022/09/08 01:23:49;;;;;;;5.22;2.90;;;;;;;-140.72;100.00;52472.03;5110451;28;20074;-67
2022/09/08 01:26:29;;;;;;;5.65;3.67;;;;;;;-140.72;100.00;52447.69;5111075;28;20063;-68
2022/09/08 01:29:02;;;;;;;3.28;2.17;;;;;;;-140.72;100.00;52443.63;5103012;27;20027;-68
2022/09/08 01:31:30;;;;;;;4.00;2.97;;;;;;;-140.72;100.00;52484.19;5104502;28;20345;-68
2022/09/08 01:33:58;;;;;;;5.60;2.92;;;;;;;-140.72;100.00;52492.31;5091379;28;20038;-68
2022/09/08 01:36:24;;;;;;;6.63;3.45;;;;;;;-140.72;100.00;52486.22;5105215;27;20364;-68
2022/09/08 01:38:49;;;;;;;10.88;4.07;;;;;;;-140.72;100.00;52470.00;5109332;28;20023;-68
2022/09/08 01:41:15;;;;;;;6.00;4.18;;;;;;;-140.72;100.00;52492.31;5097746;28;20055;-67
2022/09/08 01:43:40;;;;;;;5.13;2.95;;;;;;;-140.72;100.00;52492.31;5102970;27;20020;-68
2022/09/08 01:46:06;;;;;;;5.65;2.88;;;;;;;-140.72;100.00;52486.22;5093889;28;20367;-67
2022/09/08 01:48:35;;;;;;;12.38;3.35;;;;;;;-140.72;100.00;52502.47;5100683;28;20072;-68
2022/09/08 01:51:02;;;;;;;5.15;3.50;;;;;;;-140.72;100.00;52502.47;5102316;28;20034;-68
2022/09/08 01:53:28;;;;;;;5.38;2.90;;;;;;;-140.72;100.00;52472.03;5114748;27;20011;-68
2022/09/08 01:55:53;;;;;;;6.45;2.83;;;;;;;-140.72;100.00;52480.16;5110628;27;20024;-67
2022/09/08 01:58:19;;;;;;;5.07;2.50;;;;;;;-140.72;100.00;52484.19;5100215;27;20341;-67
2022/09/08 02:00:44;;;;;;;5.63;3.53;;;;;;;-140.72;100.00;52506.53;5108445;27;20023;-68
2022/09/08 02:03:11;;;;;;;7.68;3.50;;;;;;;-140.72;100.00;52472.03;5111055;27;20365;-68
2022/09/08 02:05:38;;;;;;;5.55;3.28;;;;;;;-140.72;100.00;52465.94;5113489;27;20449;-67
2022/09/08 02:08:04;;;;;;;6.53;2.60;;;;;;;-140.72;100.00;52500.44;5113400;27;20091;-67
2022/09/08 02:10:29;;;;;;;6.38;3.08;;;;;;;-140.72;100.00;52463.91;5091308;28;20055;-68
2022/09/08 02:12:54;;;;;;;4.90;3.08;;;;;;;-140.72;100.00;52492.31;5108562;28;20043;-67
2022/09/08 02:15:20;;;;;;;5.25;3.17;;;;;;;-140.72;100.00;52476.09;5098805;28;20024;-67
2022/09/08 02:17:45;;;;;;;8.45;3.20;;;;;;;-140.72;100.00;52484.19;5107445;28;20028;-67
2022/09/08 02:20:10;;;;;;;8.02;2.72;;;;;;;-140.72;100.00;52478.13;5110183;28;20034;-67
2022/09/08 02:22:36;;;;;;;5.20;2.17;;;;;;;-140.72;100.00;52478.13;5109790;28;20038;-68
2022/09/08 02:25:01;;;;;;;8.35;3.17;;;;;;;-140.72;100.00;52488.25;5109132;28;20062;-67
2022/09/08 02:27:26;;;;;;;3.33;2.08;;;;;;;-140.72;100.00;52478.13;5109098;28;20111;-67
2022/09/08 02:29:52;;;;;;;2.95;2.25;;;;;;;-140.72;100.00;52512.59;5122828;27;20075;-67
2022/09/08 02:32:17;;;;;;;6.22;2.40;;;;;;;-140.72;100.00;52506.53;5109312;28;20019;-67
2022/09/08 02:34:43;;;;;;;3.15;1.80;;;;;;;-140.72;100.00;52500.44;5098463;28;20110;-67
2022/09/08 02:37:08;;;;;;;3.53;1.85;;;;;;;-140.72;100.00;52492.31;5110603;27;20055;-67
2022/09/08 02:39:33;;;;;;;8.70;2.33;;;;;;;-140.72;100.00;52492.31;5113334;28;20053;-64
2022/09/08 02:41:59;;;;;;;5.38;1.65;;;;;;;-140.72;100.00;52502.47;5117751;28;20374;-66
2022/09/08 02:44:24;;;;;;;2.33;0.82;;;;;;;-140.72;100.00;52508.56;5112213;28;20479;-65
2022/09/08 02:46:50;;;;;;;5.32;1.45;;;;;;;-140.72;100.00;52520.72;5113773;28;20058;-65
2022/09/08 02:49:15;;;;;;;1.45;0.55;;;;;;;-140.72;100.00;52539.00;5097293;28;20249;-65
2022/09/08 02:51:40;;;;;;;2.30;1.15;;;;;;;-140.72;100.00;52545.06;5105922;27;20015;-66
2022/09/08 02:54:06;;;;;;;2.40;1.02;;;;;;;-140.72;100.00;52524.78;5130111;27;20102;-65
2022/09/08 02:56:32;;;;;;;3.72;0.95;;;;;;;-140.72;100.00;52545.06;5113804;28;20074;-67
2022/09/08 02:58:57;;;;;;;3.00;0.90;;;;;;;-140.72;100.00;52510.59;5108052;28;20386;-66
2022/09/08 03:01:23;;;;;;;2.70;1.02;;;;;;;-140.72;100.00;52520.72;5105188;28;20073;-66
2022/09/08 03:03:49;;;;;;;2.55;1.27;;;;;;;-140.72;100.00;52549.13;5113942;27;20019;-66
2022/09/08 03:06:16;;;;;;;7.63;1.52;;;;;;;-140.72;100.00;52532.91;5122591;27;20066;-66
2022/09/08 03:08:41;;;;;;;4.72;1.38;;;;;;;-140.72;100.00;52486.22;5102467;28;20039;-66
2022/09/08 03:11:08;;;;;;;1.58;0.95;;;;;;;-140.72;100.00;52524.78;5126964;27;20459;-66
2022/09/08 03:13:35;;;;;;;1.35;0.90;;;;;;;-140.72;100.00;52561.31;5113481;27;20034;-66
2022/09/08 03:16:01;;;;;;;1.85;1.02;;;;;;;-140.72;100.00;52532.91;5116442;27;20033;-66
2022/09/08 03:18:26;;;;;;;2.03;1.00;;;;;;;-140.72;100.00;52520.72;5114656;27;20023;-65
2022/09/08 03:21:03;;;;;;;2.03;1.25;;;;;;;-140.72;100.00;52545.06;5114402;27;20043;-65
2022/09/08 03:23:30;;;;;;;3.50;1.08;;;;;;;-140.72;100.00;52516.66;5119599;27;20028;-65
2022/09/08 03:26:01;;;;;;;1.88;1.25;;;;;;;-140.72;100.00;52530.88;5111879;28;20124;-65
2022/09/08 03:28:26;;;;;;;2.22;1.17;;;;;;;-140.72;100.00;52553.19;5100967;28;20012;-66
2022/09/08 03:30:52;;;;;;;1.90;0.95;;;;;;;-140.72;100.00;52561.31;5115004;27;20034;-66
2022/09/08 03:33:17;;;;;;;2.90;0.93;;;;;;;-140.72;100.00;52555.22;5114360;27;20016;-66
2022/09/08 03:35:44;;;;;;;3.33;1.08;;;;;;;-140.72;100.00;52569.44;5112688;27;20410;-67
2022/09/08 03:38:09;;;;;;;1.58;0.90;;;;;;;-140.72;100.00;52563.34;5102680;27;20016;-67
2022/09/08 03:40:38;;;;;;;3.58;0.70;;;;;;;-140.72;100.00;52526.81;5112108;28;20007;-66
2022/09/08 03:43:06;;;;;;;9.25;1.60;;;;;;;-140.72;100.00;52506.53;5111675;27;20027;-66
2022/09/08 03:45:31;;;;;;;3.13;0.95;;;;;;;-140.72;100.00;52571.47;5111158;27;20026;-66
2022/09/08 03:47:56;;;;;;;7.63;1.38;;;;;;;-140.72;100.00;52539.00;5112602;28;20031;-66
2022/09/08 03:50:23;;;;;;;1.75;0.85;;;;;;;-140.72;100.00;52516.66;5115169;27;20019;-67
2022/09/08 03:52:48;;;;;;;2.42;1.30;;;;;;;-140.72;100.00;52520.72;5097444;28;20069;-66
2022/09/08 03:55:14;;;;;;;2.17;1.15;;;;;;;-140.72;100.00;52595.81;5097851;27;20039;-67
2022/09/08 03:57:39;;;;;;;2.38;1.10;;;;;;;-140.72;100.00;52573.50;5098839;27;20048;-67
2022/09/08 04:00:08;;;;;;;1.15;0.77;;;;;;;-140.72;100.00;52559.28;5097922;28;20077;-67
2022/09/08 04:02:34;;;;;;;4.13;1.30;;;;;;;-140.72;100.00;52539.00;5112752;27;20062;-67
2022/09/08 04:04:59;;;;;;;1.70;0.77;;;;;;;-140.72;100.00;52541.03;5100123;27;20016;-68
2022/09/08 04:07:28;;;;;;;1.63;0.90;;;;;;;-140.72;100.00;52516.66;5105151;27;20024;-67
2022/09/08 04:09:54;;;;;;;3.05;1.13;;;;;;;-140.72;100.00;52522.75;5113794;27;20518;-67
2022/09/08 04:12:20;;;;;;;2.33;1.20;;;;;;;-140.72;100.00;52528.84;5110756;27;20016;-67
2022/09/08 04:14:47;;;;;;;7.22;1.38;;;;;;;-140.72;100.00;52549.13;5106341;27;20119;-67
2022/09/08 04:17:12;;;;;;;2.40;1.40;;;;;;;-140.72;100.00;52539.00;5103061;28;20510;-67
2022/09/08 04:19:38;;;;;;;1.10;0.80;;;;;;;-140.72;100.00;52587.69;5112788;28;20023;-67
2022/09/08 04:22:03;;;;;;;1.67;1.00;;;;;;;-140.72;100.00;52532.91;5100959;27;20028;-67
2022/09/08 04:24:28;;;;;;;2.38;1.23;;;;;;;-140.72;100.00;52541.03;5106459;27;20172;-67
2022/09/08 04:26:54;;;;;;;3.83;1.38;;;;;;;-140.72;100.00;52532.91;5117185;27;20444;-66
2022/09/08 04:29:38;;;;;;;2.03;1.27;;;;;;;-140.72;100.00;52559.28;5115526;27;20027;-67
2022/09/08 04:32:03;;;;;;;4.57;2.13;;;;;;;-140.72;100.00;52571.47;5102437;28;20411;-66
2022/09/08 04:34:29;;;;;;;5.15;1.13;;;;;;;-140.72;100.00;52530.88;5110292;28;20076;-66
2022/09/08 04:36:55;;;;;;;4.35;1.38;;;;;;;-140.72;100.00;52583.63;5114690;27;20019;-67
2022/09/08 04:39:20;;;;;;;3.42;1.70;;;;;;;-140.72;100.00;52589.72;5116646;27;20015;-67
2022/09/08 04:41:46;;;;;;;4.85;1.45;;;;;;;-140.72;100.00;52605.94;5105583;27;20051;-67
2022/09/08 04:44:11;;;;;;;6.63;1.20;;;;;;;-140.72;100.00;52553.19;5107431;27;20023;-66
2022/09/08 04:46:37;;;;;;;2.22;1.27;;;;;;;-140.72;100.00;52563.34;5105285;28;20123;-66
2022/09/08 04:49:03;;;;;;;6.28;1.73;;;;;;;-140.72;100.00;52551.16;5117008;27;20073;-67
2022/09/08 04:51:29;;;;;;;3.65;1.80;;;;;;;-140.72;100.00;52536.97;5111014;28;20441;-66
2022/09/08 04:53:56;;;;;;;2.38;1.60;;;;;;;-140.72;100.00;52569.44;5097854;28;20039;-70
2022/09/08 04:56:23;;;;;;;3.55;2.25;;;;;;;-140.72;100.00;52541.03;5101870;28;20361;-69
2022/09/08 04:58:50;;;;;;;2.70;1.60;;;;;;;-140.72;100.00;52577.53;5099976;27;20492;-71
2022/09/08 05:01:19;;;;;;;3.00;1.70;;;;;;;-140.72;100.00;52571.47;5097748;27;20052;-70
2022/09/08 05:03:45;;;;;;;4.65;2.00;;;;;;;-140.72;100.00;52536.97;5105699;28;20024;-70
2022/09/08 05:06:15;;;;;;;2.75;1.67;;;;;;;-140.72;100.00;52565.38;5103071;27;20128;-70
2022/09/08 05:08:46;;;;;;;5.38;2.25;;;;;;;-140.72;100.00;52549.13;5105603;28;20023;-73
2022/09/08 05:11:12;;;;;;;3.17;1.73;;;;;;;-140.72;100.00;52549.13;5093862;28;20047;-67
2022/09/08 05:13:38;;;;;;;7.30;2.33;;;;;;;-140.72;100.00;52549.13;5099099;27;20023;-66
2022/09/08 05:16:09;;;;;;;3.50;2.13;;;;;;;-140.72;100.00;52559.28;5109888;28;20053;-66
2022/09/08 05:18:35;;;;;;;3.97;2.05;;;;;;;-140.72;100.00;52561.31;5113256;27;20023;-66
2022/09/08 05:21:01;;;;;;;6.85;2.78;;;;;;;-140.72;100.00;52587.69;5102700;28;20111;-67
2022/09/08 05:23:26;;;;;;;5.38;2.30;;;;;;;-140.72;100.00;52545.06;5102381;28;20423;-67
2022/09/08 05:25:57;;;;;;;6.97;2.58;;;;;;;-140.72;100.00;52536.97;5103112;27;20047;-67
2022/09/08 05:28:27;;;;;;;4.95;2.15;;;;;;;-140.72;100.00;52547.09;5093037;28;20469;-66
2022/09/08 05:30:52;;;;;;;;;;;;;;;-140.72;100.00;52561.31;5091441;28;20054;-65
2022/09/08 05:33:18;;;;;;;6.70;3.03;;;;;;;-140.72;100.00;52573.50;5103666;28;19935;-65
2022/09/08 05:35:43;;;;;;;5.97;2.80;;;;;;;-140.72;100.00;52551.16;5100813;27;20012;-66
2022/09/08 05:38:09;;;;;;;5.63;2.70;;;;;;;-140.72;100.00;52587.69;5094117;28;20493;-66
2022/09/08 05:40:36;;;;;;;3.67;2.75;;;;;;;-140.72;100.00;52563.34;5103422;28;20020;-65
2022/09/08 05:43:01;;;;;;;3.95;2.47;;;;;;;-140.72;100.00;52563.34;5103543;27;20076;-63
2022/09/08 05:45:27;;;;;;;5.15;2.65;;;;;;;-140.72;100.00;52607.97;5094627;28;20099;-64
2022/09/08 05:47:52;;;;;;;4.07;1.90;;;;;;;-140.72;100.00;52569.44;5095677;28;20111;-65
2022/09/08 05:50:18;;;;;;;3.65;2.83;;;;;;;-140.72;100.00;52601.91;5093690;28;20069;-64
2022/09/08 05:52:43;;;;;;;4.03;2.75;;;;;;;-140.72;100.00;52532.91;5098383;27;20445;-65
2022/09/08 05:55:09;;;;;;;5.75;3.60;;;;;;;-140.72;100.00;52561.31;5094450;28;20365;-64
2022/09/08 05:57:35;;;;;;;4.38;2.75;;;;;;;-140.72;100.00;52597.84;5100184;28;20171;-65
2022/09/08 06:00:02;;;;;;;6.13;3.03;;;;;;;-140.72;100.00;52547.09;5103625;28;20027;-64
2022/09/08 06:02:28;;;;;;;4.85;2.45;;;;;;;-140.72;100.00;52597.84;5101418;27;20049;-64
2022/09/08 06:04:53;;;;;;;3.80;2.03;;;;;;;-140.72;100.00;52583.63;5096997;28;20109;-65
2022/09/08 06:07:18;;;;;;;3.00;1.98;;;;;;;-140.72;100.00;52569.44;5099436;27;20023;-65
2022/09/08 06:09:44;;;;;;;2.03;1.25;;;;;;;-140.72;100.00;52573.50;5099698;28;20467;-65
2022/09/08 06:12:09;;;;;;;6.18;2.00;;;;;;;-140.72;100.00;52543.03;5098765;28;20414;-65
2022/09/08 06:14:34;;;;;;;2.90;1.40;;;;;;;-140.72;100.00;52569.44;5099668;28;20496;-66
2022/09/08 06:17:00;;;;;;;2.25;1.30;;;;;;;-140.72;100.00;52605.94;5091275;28;20047;-65
2022/09/08 06:19:25;;;;;;;2.75;1.77;;;;;;;-140.72;100.00;52536.97;5101915;28;20016;-65
2022/09/08 06:21:51;;;;;;;5.07;1.70;;;;;;;-140.72;100.00;52530.88;5102909;27;20019;-66
2022/09/08 06:24:16;;;;;;;3.88;1.63;;;;;;;-140.72;100.00;52534.94;5093977;28;20345;-66
2022/09/08 06:27:30;;;;;;;3.30;2.25;;;;;;;-140.72;100.00;52530.88;5093757;28;20116;-65
2022/09/08 06:30:14;;;;;;;3.60;2.42;;;;;;;-140.72;100.00;52567.41;5078851;28;20036;-65
2022/09/08 06:32:55;;;;;;;5.07;2.33;;;;;;;-140.72;100.00;52528.84;5095601;28;20111;-68
2022/09/08 06:35:28;;;;;;;5.03;2.67;;;;;;;-140.72;100.00;52508.56;5104653;28;20027;-65
2022/09/08 06:38:01;;;;;;;6.20;3.58;;;;;;;-140.72;100.00;52536.97;5096479;28;20466;-66
2022/09/08 06:40:39;;;;;;;3.33;2.22;;;;;;;-140.72;100.00;52532.91;5054965;28;20034;-65
2022/09/08 06:43:25;;;;;;;5.85;1.98;;;;;;;-140.72;100.00;52541.03;5095090;28;20119;-65
2022/09/08 06:45:53;;;;;;;4.22;2.50;;;;;;;-140.72;100.00;52532.91;5096415;28;20036;-66
2022/09/08 06:48:29;;;;;;;6.68;3.53;;;;;;;-140.72;100.00;52545.06;5097866;28;20067;-66
2022/09/08 06:51:31;;;;;;;7.65;2.60;;;;;;;-140.72;100.00;52543.03;5096279;28;20380;-67
2022/09/08 06:54:10;;;;;;;3.63;2.35;;;;;;;-140.72;100.00;52561.31;5097675;28;20024;-65
2022/09/08 06:57:32;;;;;;;4.57;2.67;;;;;;;-140.72;100.00;52549.13;5092838;28;20103;-65
2022/09/08 07:00:21;;;;;;;3.97;2.72;;;;;;;-140.72;100.00;52532.91;5009327;28;20418;-67
2022/09/08 07:03:10;;;;;;;4.35;2.83;;;;;;;-140.72;100.00;52597.84;5003860;28;20060;-66
2022/09/08 07:06:01;;;;;;;4.93;2.80;;;;;;;-140.72;100.00;52545.06;5087846;28;20139;-65
2022/09/08 07:09:03;;;;;;;4.28;2.92;;;;;;;-140.72;100.00;52482.16;5091812;28;20370;-66
2022/09/08 07:11:31;;;;;;;3.60;2.90;;;;;;;-140.72;100.00;52557.25;5099920;28;20449;-66
2022/09/08 07:14:26;;;;;;;5.90;3.38;;;;;;;-140.72;100.00;52565.38;5093304;28;20020;-67
2022/09/08 07:17:00;;;;;;;3.95;3.00;;;;;;;-140.72;100.00;52547.09;5089817;28;20031;-67
2022/09/08 07:19:46;;;;;;;5.63;4.30;;;;;;;-140.72;100.00;52508.56;5094201;28;20100;-68
2022/09/08 07:22:31;;;;;;;7.32;3.28;;;;;;;-140.72;100.00;52528.84;5101641;28;20063;-66
2022/09/08 07:25:20;;;;;;;6.80;3.50;;;;;;;-140.72;100.00;52536.97;5099027;28;20032;-66
2022/09/08 07:27:52;;;;;;;7.38;4.45;;;;;;;-140.72;100.00;52524.78;5095939;28;20024;-64
2022/09/08 07:30:18;;;;;;;6.47;4.68;;;;;;;-140.72;100.00;52524.78;5094410;28;20024;-66
2022/09/08 07:32:51;;;;;;;8.50;3.90;;;;;;;-140.72;100.00;52536.97;5090684;28;20039;-66
2022/09/08 07:35:47;;;;;;;10.63;5.13;;;;;;;-140.72;100.00;52508.56;5095606;28;20512;-65
2022/09/08 07:38:24;;;;;;;6.22;4.78;;;;;;;-140.72;100.00;52539.00;5101927;28;20477;-66
2022/09/08 07:40:53;;;;;;;7.70;5.47;;;;;;;-140.72;100.00;52516.66;5094924;28;20052;-66
2022/09/08 07:43:18;;;;;;;8.93;6.20;;;;;;;-140.72;100.00;52506.53;5100389;28;20016;-66
2022/09/08 07:46:31;;;;;;;12.00;7.20;;;;;;;-140.72;100.00;52508.56;5100250;28;20032;-67
2022/09/08 07:49:22;;;;;;;10.43;6.78;;;;;;;-140.72;100.00;52516.66;5095760;27;20060;-66
2022/09/08 07:52:02;;;;;;;9.15;6.05;;;;;;;-140.72;100.00;52539.00;5100877;28;20050;-66
2022/09/08 07:54:51;;;;;;;7.70;5.43;;;;;;;-140.72;100.00;52506.53;5107079;28;20047;-66
2022/09/08 07:57:23;;;;;;;7.03;4.75;;;;;;;-140.72;100.00;52496.38;5098886;28;20103;-66
2022/09/08 08:00:09;;;;;;;13.82;4.80;;;;;;;-140.72;100.00;52465.94;5102824;28;20019;-67
2022/09/08 08:02:41;;;;;;;6.18;4.55;;;;;;;-140.72;100.00;52532.91;5099930;28;20028;-67
2022/09/08 08:05:09;;;;;;;5.28;2.97;;;;;;;-140.72;100.00;52506.53;5098392;28;20055;-66
2022/09/08 08:07:47;;;;;;;4.43;3.35;;;;;;;-140.72;100.00;52478.13;5097812;28;20035;-67
2022/09/08 08:10:20;;;;;;;5.07;3.58;;;;;;;-140.72;100.00;52504.50;5099411;27;20024;-67
2022/09/08 08:12:59;;;;;;;8.85;4.00;;;;;;;-140.72;100.00;52518.69;5097690;27;20119;-67
2022/09/08 08:15:45;;;;;;;7.72;4.40;;;;;;;-140.72;100.00;52508.56;5105265;27;20019;-68
2022/09/08 08:18:32;;;;;;;6.15;3.80;;;;;;;-140.72;100.00;52447.69;5098244;28;20096;-67
2022/09/08 08:21:18;;;;;;;8.52;4.18;;;;;;;-140.72;100.00;52461.88;5097766;28;20032;-67
2022/09/08 08:24:15;;;;;;;9.10;4.75;;;;;;;-140.72;100.00;52457.81;5091856;28;20047;-67
2022/09/08 08:27:06;;;;;;;6.30;3.67;;;;;;;-140.72;100.00;52490.28;5101838;28;20077;-66
2022/09/08 08:29:48;;;;;;;5.95;3.92;;;;;;;-140.72;100.00;52465.94;5101508;27;20028;-65
2022/09/08 08:32:23;;;;;;;7.03;3.10;;;;;;;-140.72;100.00;52486.22;5100227;28;20028;-66
2022/09/08 08:35:04;;;;;;;5.25;3.53;;;;;;;-140.72;100.00;52490.28;5092873;28;20430;-66
2022/09/08 08:37:38;;;;;;;4.50;3.10;;;;;;;-140.72;100.00;52476.09;5098623;27;20498;-66
2022/09/08 08:40:21;;;;;;;4.10;3.55;;;;;;;-140.72;100.00;52500.44;5096181;28;20047;-66
2022/09/08 08:43:20;;;;;;;4.53;3.20;;;;;;;-140.72;100.00;52512.59;5101691;28;20023;-66
2022/09/08 08:46:10;;;;;;;8.05;3.72;;;;;;;-140.72;100.00;52500.44;5099838;28;20015;-66
2022/09/08 08:49:02;;;;;;;4.93;3.30;;;;;;;-140.72;100.00;52504.50;5077862;28;20538;-66
2022/09/08 08:51:54;;;;;;;5.32;3.17;;;;;;;-140.72;100.00;52472.03;5077443;28;20020;-68
2022/09/08 08:54:41;;;;;;;4.78;2.63;;;;;;;-140.72;100.00;52461.88;5085390;28;20012;-67
2022/09/08 08:57:09;;;;;;;5.05;2.22;;;;;;;-140.72;100.00;52465.94;5077264;28;20073;-67
2022/09/08 09:00:02;;;;;;;4.60;2.38;;;;;;;-140.72;100.00;52457.81;5075850;28;20020;-67
2022/09/08 09:02:58;;;;;;;4.18;2.35;;;;;;;-140.72;100.00;52411.16;5073865;28;20028;-67
2022/09/08 09:05:35;;;;;;;4.85;2.95;;;;;;;-140.72;100.00;52421.28;5081821;28;20414;-66
2022/09/08 09:08:15;;;;;;;4.47;2.97;;;;;;;-140.72;100.00;52388.84;5076791;28;20401;-66
2022/09/08 09:10:49;;;;;;;7.38;3.03;;;;;;;-140.72;100.00;52435.50;5080097;28;20020;-67
2022/09/08 09:13:39;;;;;;;4.95;2.63;;;;;;;-140.72;100.00;52396.94;5077803;28;20024;-67
2022/09/08 09:16:22;;;;;;;;;;;;;;;-140.72;100.00;52354.34;5080595;28;20743;-66
2022/09/08 09:19:38;;;;;;;2.50;1.88;;;;;;;-140.72;100.00;52346.22;5082052;28;19907;-68
2022/09/08 09:22:25;;;;;;;2.55;1.65;;;;;;;-140.72;100.00;52374.63;5039557;28;20036;-67
2022/09/08 09:25:12;;;;;;;3.38;1.60;;;;;;;-140.72;100.00;52447.69;5081852;28;20111;-68
2022/09/08 09:27:51;;;;;;;2.00;1.38;;;;;;;-140.72;100.00;52417.25;5069797;28;20135;-67
2022/09/08 09:30:22;;;;;;;3.10;1.38;;;;;;;-140.72;100.00;52443.63;5076117;28;20047;-67
2022/09/08 09:32:56;;;;;;;5.82;1.38;;;;;;;-140.72;100.00;52435.50;5078137;28;20025;-67
2022/09/08 09:35:43;;;;;;;1.65;0.95;;;;;;;-140.72;100.00;52378.69;5076168;28;20560;-67
2022/09/08 09:38:29;;;;;;;5.13;1.27;;;;;;;-140.72;100.00;52386.81;5073936;28;20430;-68
2022/09/08 09:41:28;;;;;;;4.25;1.70;;;;;;;-140.72;100.00;52390.84;5079821;28;20028;-67
2022/09/08 09:44:12;;;;;;;5.43;2.10;;;;;;;-140.72;100.00;52382.75;5078309;28;20385;-68
2022/09/08 09:46:56;;;;;;;2.63;1.75;;;;;;;-140.72;100.00;52419.28;5086300;28;20039;-68
2022/09/08 09:50:09;;;;;;;4.32;2.22;;;;;;;-140.72;100.00;52358.41;5093902;28;20037;-65
2022/09/08 09:52:34;;;;;;;3.92;2.30;;;;;;;-140.72;100.00;52368.53;5031395;28;20031;-66
2022/09/08 09:55:05;;;;;;;8.70;3.03;;;;;;;-140.72;100.00;52386.81;5092392;28;20408;-65
2022/09/08 09:57:52;;;;;;;7.85;2.97;;;;;;;-140.72;100.00;52342.16;5090411;28;20032;-66
2022/09/08 10:00:24;;;;;;;2.92;1.58;;;;;;;-140.72;100.00;52427.38;5103000;28;20518;-66
2022/09/08 10:03:29;;;;;;;2.33;1.30;;;;;;;-140.72;100.00;52427.38;5095069;28;20028;-66
2022/09/08 10:06:16;;;;;;;7.05;2.00;;;;;;;-140.72;100.00;52427.38;5097232;28;20032;-65
2022/09/08 10:09:11;;;;;;;2.72;1.38;;;;;;;-140.72;100.00;52370.56;5098415;28;20027;-66
2022/09/08 10:12:05;;;;;;;5.05;1.20;;;;;;;-140.72;100.00;52396.94;5099602;27;20020;-66
2022/09/08 10:15:05;;;;;;;1.48;0.65;;;;;;;-140.72;100.00;52370.56;5094145;28;20042;-67
2022/09/08 10:17:58;;;;;;;2.35;0.40;;;;;;;-140.72;100.00;52354.34;5101311;28;20326;-67
2022/09/08 10:20:43;;;;;;;2.05;0.60;;;;;;;-140.72;100.00;52340.13;5099185;28;20152;-67
2022/09/08 10:23:22;;;;;;;4.47;1.02;;;;;;;-140.72;100.00;52336.06;5101490;28;20400;-67
2022/09/08 10:26:06;;;;;;;1.77;0.90;;;;;;;-140.72;100.00;52281.28;5100113;27;20089;-67
2022/09/08 10:28:50;;;;;;;1.15;0.70;;;;;;;-140.72;100.00;52285.34;5101112;28;20505;-67
2022/09/08 10:31:27;;;;;;;2.55;0.65;;;;;;;-140.72;100.00;52236.66;5092922;28;20035;-68
2022/09/08 10:33:55;;;;;;;1.17;0.43;;;;;;;-140.72;100.00;52214.34;5088409;28;20444;-66
2022/09/08 10:36:42;;;;;;;1.33;0.65;;;;;;;-140.72;100.00;52234.63;5094665;28;20024;-66
2022/09/08 10:39:58;;;;;;;1.42;0.50;;;;;;;-140.72;100.00;52194.03;5101720;28;20031;-67
2022/09/08 10:42:45;;;;;;;1.90;0.30;;;;;;;-140.72;100.00;52226.50;5072049;28;20070;-68
2022/09/08 10:45:13;;;;;;;0.57;0.40;;;;;;;-140.72;12.33;52210.28;5102491;28;20032;-69
2022/09/08 10:48:33;;;;;;;1.85;0.82;;;;;;;-140.72;0.00;52291.44;5088759;28;20404;-67
2022/09/08 10:51:39;;;;;;;4.13;1.05;;;;;;;-140.72;0.00;52313.75;5053238;28;20032;-68
2022/09/08 10:54:26;;;;;;;1.50;0.82;;;;;;;-140.72;0.00;52196.06;5061970;28;20543;-68
2022/09/08 10:56:58;;;;;;;2.05;1.13;;;;;;;-140.72;0.00;52157.53;5099021;28;20106;-68
2022/09/08 10:59:35;;;;;;;3.00;0.60;;;;;;;-140.72;0.00;52153.47;5095190;28;20096;-67
2022/09/08 11:02:10;;;;;;;1.35;0.73;;;;;;;-140.72;0.00;52133.16;5103914;28;20050;-67
2022/09/08 11:04:51;;;;;;;2.22;1.02;;;;;;;-140.72;0.00;52123.03;5092355;28;20021;-66
2022/09/08 11:07:34;;;;;;;1.73;0.60;;;;;;;-140.72;0.00;52098.69;5095945;28;20027;-65
2022/09/08 11:10:32;;;;;;;5.32;0.80;;;;;;;-140.72;0.00;52039.84;5098647;28;20042;-67
2022/09/08 11:13:03;;;;;;;0.65;0.43;;;;;;;-140.72;0.00;52198.09;5056310;28;20443;-67
2022/09/08 11:15:58;;;;;;;2.15;0.85;;;;;;;-140.72;0.00;52242.75;5098508;27;20091;-66
2022/09/08 11:18:44;;;;;;;2.75;1.30;;;;;;;-140.72;0.00;52173.75;5103923;28;20026;-66
2022/09/08 11:21:22;;;;;;;5.80;1.40;;;;;;;-140.72;0.00;52127.09;5100278;28;20122;-65
2022/09/08 11:24:20;;;;;;;1.70;0.95;;;;;;;-140.72;0.00;52084.47;5101819;28;20024;-66
2022/09/08 11:27:00;;;;;;;2.85;1.20;;;;;;;-140.72;0.00;52047.97;5097539;28;20051;-66
2022/09/08 11:29:37;;;;;;;3.05;0.63;;;;;;;-140.72;0.00;52220.41;5099917;28;20480;-65
2022/09/08 11:32:14;;;;;;;2.33;1.02;;;;;;;-140.72;0.00;52289.41;5103178;28;20473;-65
2022/09/08 11:34:44;;;;;;;1.50;1.00;;;;;;;-140.72;0.00;52325.94;5099415;28;20027;-67
2022/09/08 11:37:27;;;;;;;2.70;1.02;;;;;;;-140.72;0.00;52248.81;5105083;28;20028;-66
2022/09/08 11:40:35;;;;;;;1.58;0.95;;;;;;;-140.72;0.00;52159.56;5104092;27;20035;-67
2022/09/08 11:43:01;;;;;;;1.48;1.10;;;;;;;-140.72;0.00;52230.56;5098129;27;20042;-66
2022/09/08 11:45:49;;;;;;;1.85;0.50;;;;;;;-140.72;0.00;52135.19;5101008;28;20372;-66
2022/09/08 11:48:31;;;;;;;2.63;0.60;;;;;;;-140.72;0.00;52066.22;5075078;28;20043;-67
2022/09/08 11:51:20;;;;;;;4.40;0.40;;;;;;;-140.72;0.00;52021.56;5099248;28;20031;-65